Terminal Aerodrome Forecast
Issued by NWS Cleveland, OH

Home | Current Version | Previous Version | Graphics & Text | Print | Product List | Glossary On
Versions: 1 2 3 4 5 6 7 8 9 10 11 12 13 14 15 16 17 18 19 20
000
FTUS41 KCLE 220550
TAFCAK
TAF
KCAK 220550Z 2206/2306 02009KT P6SM -RASN OVC050
     FM221000 04009KT 6SM -RASN BR OVC025
     FM221200 05009KT 3SM -SNPL BR OVC025
     FM221300 05009KT 3SM -SNPL BR OVC015
     FM221500 06009KT 3SM -RA BR OVC015
     FM221600 06010KT P6SM OVC015
     FM230200 07007KT P6SM BKN010=

USA.gov is the U.S. government's official web portal to all federal, state and local government web resources and services.